Time;durP1;ratioP1;P1;durP2;ratioP2;P2;SDS_P1;SDS_P2;PMS_P1;PMS_P2;Temp;Humidity;BMP_temperature;BMP_pressure;BME280_temperature;BME280_humidity;BME280_pressure;Samples;Min_cycle;Max_cycle;Signal;HPM_P1;HPM_P2
2022/05/29 00:02:09;;;;;;;5.75;1.30;;;;;;;6.78;100.00;99377.53;5040250;28;20033;-91
2022/05/29 00:04:54;;;;;;;2.55;0.98;;;;;;;6.68;100.00;99369.91;5040040;28;20541;-91
2022/05/29 00:07:40;;;;;;;4.80;1.17;;;;;;;6.77;100.00;99372.38;5053779;28;20033;-91
2022/05/29 00:10:24;;;;;;;4.13;1.10;;;;;;;6.64;100.00;99357.84;5039943;28;20036;-92
2022/05/29 00:13:11;;;;;;;2.17;0.80;;;;;;;6.53;100.00;99334.59;5053943;28;20106;-91
2022/05/29 00:15:55;;;;;;;2.38;0.70;;;;;;;6.54;100.00;99351.94;5053777;28;20033;-91
2022/05/29 00:18:42;;;;;;;3.38;1.13;;;;;;;6.39;100.00;99353.03;5031820;28;20917;-91
2022/05/29 00:21:31;;;;;;;2.63;1.23;;;;;;;6.33;100.00;99338.34;5053815;28;20033;-91
2022/05/29 00:24:16;;;;;;;3.30;1.20;;;;;;;6.33;100.00;99337.50;5038202;28;20033;-91
2022/05/29 00:27:00;;;;;;;1.88;1.02;;;;;;;6.36;100.00;99332.25;5053304;28;20040;-92
2022/05/29 00:29:45;;;;;;;3.53;0.80;;;;;;;6.34;100.00;99362.66;5036588;28;20114;-90
2022/05/29 00:32:30;;;;;;;4.13;1.23;;;;;;;6.35;100.00;99342.69;5038962;28;20033;-91
2022/05/29 00:35:14;;;;;;;2.72;1.23;;;;;;;6.22;100.00;99335.06;5045243;28;20124;-91
2022/05/29 00:37:59;;;;;;;2.88;1.30;;;;;;;6.23;100.00;99341.13;5052813;28;20037;-91
2022/05/29 00:40:47;;;;;;;2.65;1.02;;;;;;;6.17;100.00;99354.22;5042753;28;20117;-91
2022/05/29 00:43:31;;;;;;;1.90;1.10;;;;;;;6.02;100.00;99330.16;5024736;28;20037;-91
2022/05/29 00:46:15;;;;;;;5.82;1.23;;;;;;;6.12;100.00;99328.28;5038706;28;20041;-92
2022/05/29 00:49:05;;;;;;;1.83;0.88;;;;;;;6.20;100.00;99346.38;5022389;28;20407;-91
2022/05/29 00:52:04;;;;;;;3.10;1.00;;;;;;;6.04;100.00;99330.13;5052048;28;20045;-92
2022/05/29 00:54:58;;;;;;;3.00;1.63;;;;;;;6.12;100.00;99338.69;5052194;28;20045;-91
2022/05/29 00:57:46;;;;;;;3.53;1.08;;;;;;;6.00;100.00;99326.72;5038841;28;20612;-91
2022/05/29 01:00:33;;;;;;;3.25;1.23;;;;;;;5.89;100.00;99323.38;5052096;28;20044;-91
2022/05/29 01:03:17;;;;;;;2.70;1.15;;;;;;;5.86;100.00;99321.69;5038828;28;20614;-91
2022/05/29 01:06:02;;;;;;;1.58;0.82;;;;;;;5.95;100.00;99335.47;5052604;28;20037;-91
2022/05/29 01:08:46;;;;;;;4.95;1.20;;;;;;;5.76;100.00;99314.91;5024875;28;20032;-91
2022/05/29 01:11:40;;;;;;;3.50;0.95;;;;;;;5.82;100.00;99334.75;5049979;28;20067;-91
2022/05/29 01:14:33;;;;;;;3.28;0.98;;;;;;;5.68;100.00;99308.06;5025257;28;20821;-91
2022/05/29 01:17:26;;;;;;;2.00;1.10;;;;;;;5.74;100.00;99315.78;5025961;28;20045;-92
2022/05/29 01:20:32;;;;;;;2.72;1.20;;;;;;;5.75;100.00;99330.50;5024420;28;20044;-92
2022/05/29 01:23:38;;;;;;;2.38;1.27;;;;;;;5.71;100.00;99337.47;5037977;28;20041;-92
2022/05/29 01:26:39;;;;;;;2.53;1.42;;;;;;;5.53;100.00;99328.19;5044648;28;20073;-90
2022/05/29 01:29:51;;;;;;;2.65;1.08;;;;;;;5.54;100.00;99342.88;5030665;28;20468;-91
2022/05/29 01:32:40;;;;;;;2.35;1.20;;;;;;;5.40;100.00;99347.41;5042844;28;20040;-91
2022/05/29 01:35:33;;;;;;;3.33;1.33;;;;;;;5.31;100.00;99318.91;5051542;28;20045;-91
2022/05/29 01:38:28;;;;;;;3.00;1.30;;;;;;;5.24;100.00;99320.72;5036975;28;20047;-91
2022/05/29 01:41:27;;;;;;;4.65;1.38;;;;;;;5.27;100.00;99330.22;5029550;28;20332;-91
2022/05/29 01:44:21;;;;;;;4.50;1.40;;;;;;;5.33;100.00;99348.31;5037542;28;20043;-91
2022/05/29 01:47:11;;;;;;;4.93;1.80;;;;;;;5.23;100.00;99325.94;5023030;28;20037;-91
2022/05/29 01:50:02;;;;;;;2.33;1.17;;;;;;;5.08;100.00;99314.00;5051164;28;20044;-92
2022/05/29 01:52:56;;;;;;;5.22;1.20;;;;;;;5.19;100.00;99322.50;5029643;28;20037;-91
2022/05/29 01:55:45;;;;;;;3.53;1.50;;;;;;;5.26;100.00;99334.53;5027988;28;20044;-91
2022/05/29 01:58:38;;;;;;;3.28;1.10;;;;;;;5.20;100.00;99339.81;5036049;28;20041;-91
2022/05/29 02:01:28;;;;;;;1.80;0.98;;;;;;;5.16;100.00;99326.00;5037083;28;20450;-91
2022/05/29 02:04:19;;;;;;;2.78;1.30;;;;;;;5.20;100.00;99318.16;5042604;28;20041;-91
2022/05/29 02:10:41;;;;;;;4.28;1.25;;;;;;;5.03;100.00;99327.00;5036736;28;20495;-91
2022/05/29 02:13:30;;;;;;;2.67;1.10;;;;;;;5.06;100.00;99342.53;5027680;28;20040;-91
2022/05/29 02:16:29;;;;;;;1.58;1.00;;;;;;;4.92;100.00;99324.53;5050116;28;20033;-92
2022/05/29 02:19:20;;;;;;;2.05;1.05;;;;;;;4.94;100.00;99334.91;5036021;28;20660;-92
2022/05/29 02:22:10;;;;;;;3.90;1.50;;;;;;;4.95;100.00;99346.13;5023043;28;20060;-91
2022/05/29 02:25:24;;;;;;;2.63;1.25;;;;;;;4.85;100.00;99334.97;5042265;28;20137;-91
2022/05/29 02:28:12;;;;;;;3.42;1.35;;;;;;;4.79;100.00;99332.44;5019789;28;20056;-91
2022/05/29 02:31:09;;;;;;;2.83;1.50;;;;;;;4.83;100.00;99345.34;5050615;28;20376;-92
2022/05/29 02:34:12;;;;;;;3.03;1.48;;;;;;;4.79;100.00;99335.88;5029239;28;20037;-92
2022/05/29 02:37:29;;;;;;;3.03;1.20;;;;;;;4.78;100.00;99338.50;5027072;28;20109;-91
2022/05/29 02:40:25;;;;;;;3.38;1.50;;;;;;;4.72;100.00;99338.56;5022446;28;20044;-91
2022/05/29 02:43:32;;;;;;;3.90;1.25;;;;;;;4.75;100.00;99338.53;5027887;28;20230;-92
2022/05/29 02:46:35;;;;;;;3.38;1.58;;;;;;;4.66;100.00;99329.09;5022594;28;20091;-91
2022/05/29 02:49:28;;;;;;;2.85;1.00;;;;;;;4.74;100.00;99340.25;5035756;28;20479;-91
2022/05/29 02:52:16;;;;;;;2.45;1.27;;;;;;;4.73;100.00;99342.88;5049823;28;20037;-91
2022/05/29 02:55:00;;;;;;;2.78;1.42;;;;;;;4.64;100.00;99330.81;5021767;28;20856;-91
2022/05/29 02:57:45;;;;;;;3.13;1.30;;;;;;;4.58;100.00;99320.50;5049617;28;20041;-91
2022/05/29 03:00:36;;;;;;;5.93;1.60;;;;;;;4.73;100.00;99345.47;5049836;28;20041;-92
2022/05/29 03:03:47;;;;;;;3.58;1.63;;;;;;;4.74;100.00;99345.44;5035298;28;20056;-91
2022/05/29 03:06:45;;;;;;;4.05;1.45;;;;;;;4.80;100.00;99342.78;5006420;28;20061;-91
2022/05/29 03:09:45;;;;;;;3.40;1.58;;;;;;;4.77;100.00;99354.94;5035072;28;20044;-91
2022/05/29 03:13:03;;;;;;;5.40;1.60;;;;;;;4.80;100.00;99353.16;5027125;28;20460;-91
2022/05/29 03:15:59;;;;;;;7.13;1.63;;;;;;;4.84;100.00;99369.56;5022219;28;20040;-91
2022/05/29 03:18:56;;;;;;;3.05;1.38;;;;;;;4.77;100.00;99357.53;5031317;28;20045;-91
2022/05/29 03:22:15;;;;;;;3.83;1.42;;;;;;;4.91;100.00;99366.94;5034444;28;20036;-91
2022/05/29 03:25:17;;;;;;;3.30;1.60;;;;;;;4.84;100.00;99344.50;5020533;28;20073;-91
2022/05/29 03:28:05;;;;;;;2.88;1.27;;;;;;;4.83;100.00;99347.09;5024074;28;20033;-91
2022/05/29 03:30:51;;;;;;;2.92;1.67;;;;;;;4.69;100.00;99321.28;5049307;28;20084;-91
2022/05/29 03:33:41;;;;;;;2.92;1.20;;;;;;;4.96;100.00;99350.44;5039616;28;20041;-91
2022/05/29 03:36:25;;;;;;;3.17;1.00;;;;;;;4.96;100.00;99338.31;5021353;28;20443;-91
2022/05/29 03:39:10;;;;;;;4.35;1.63;;;;;;;5.08;100.00;99351.19;5034685;28;20041;-91
2022/05/29 03:41:55;;;;;;;3.72;1.90;;;;;;;5.11;100.00;99342.50;5043237;28;20041;-91
2022/05/29 03:44:40;;;;;;;3.40;1.30;;;;;;;5.08;100.00;99324.38;5035685;28;20037;-91
2022/05/29 03:47:25;;;;;;;4.80;1.27;;;;;;;5.33;100.00;99351.78;5035128;28;20112;-91
2022/05/29 03:50:14;;;;;;;2.10;1.55;;;;;;;5.43;100.00;99362.94;5032130;28;20045;-91
2022/05/29 03:53:00;;;;;;;3.35;1.42;;;;;;;5.53;100.00;99361.97;5035683;28;20090;-91
2022/05/29 03:55:45;;;;;;;5.15;1.20;;;;;;;5.57;100.00;99339.41;5038218;28;20480;-91
2022/05/29 03:58:29;;;;;;;4.53;1.33;;;;;;;5.80;100.00;99342.56;5048963;28;20041;-91
2022/05/29 04:01:13;;;;;;;2.55;1.42;;;;;;;5.83;100.00;99331.25;5049279;28;20554;-91
2022/05/29 04:03:58;;;;;;;4.20;1.38;;;;;;;6.49;100.00;99344.19;5035912;28;20482;-91
2022/05/29 04:06:43;;;;;;;2.88;1.30;;;;;;;7.05;100.00;99335.44;5041836;28;20037;-91
2022/05/29 04:12:31;;;;;;;6.28;1.77;;;;;;;7.44;100.00;99339.91;5034549;28;20400;-91
2022/05/29 04:15:15;;;;;;;5.28;1.42;;;;;;;8.23;100.00;99322.59;5049895;28;20474;-92
2022/05/29 04:17:59;;;;;;;5.32;1.90;;;;;;;8.28;100.00;99313.75;5045729;28;20095;-91
2022/05/29 04:20:45;;;;;;;5.85;1.65;;;;;;;9.02;100.00;99327.63;5052984;28;20460;-91
2022/05/29 04:23:29;;;;;;;3.65;1.90;;;;;;;8.60;100.00;99322.59;5038555;28;20040;-91
2022/05/29 04:26:15;;;;;;;3.40;1.33;;;;;;;9.26;100.00;99334.81;5038797;28;20037;-91
2022/05/29 04:29:01;;;;;;;5.28;1.38;;;;;;;9.14;100.00;99335.13;5052895;28;20086;-91
2022/05/29 04:34:53;;;;;;;3.85;1.05;;;;;;;9.25;100.00;99340.06;5044885;28;20045;-91
2022/05/29 04:37:37;;;;;;;5.22;1.35;;;;;;;9.96;100.00;99341.53;5026654;28;20037;-92
2022/05/29 04:40:22;;;;;;;5.55;1.40;;;;;;;9.88;100.00;99325.19;5024110;28;20036;-91
2022/05/29 04:43:07;;;;;;;3.92;1.20;;;;;;;10.60;100.00;99317.78;5052989;28;20095;-92
2022/05/29 04:45:54;;;;;;;4.57;1.50;;;;;;;11.31;100.00;99337.16;5052059;28;20080;-91
2022/05/29 04:48:38;;;;;;;3.13;1.30;;;;;;;11.42;100.00;99330.63;5044926;28;20029;-92
2022/05/29 04:51:22;;;;;;;2.65;0.98;;;;;;;11.74;100.00;99339.09;5042899;28;20052;-91
2022/05/29 04:54:06;;;;;;;3.83;0.90;;;;;;;11.39;100.00;99327.28;5052403;28;20040;-91
2022/05/29 04:56:51;;;;;;;4.55;1.38;;;;;;;11.65;100.00;99337.66;5045108;28;20037;-92
2022/05/29 04:59:36;;;;;;;5.47;1.05;;;;;;;12.43;100.00;99341.72;5042893;28;20116;-92
2022/05/29 05:02:21;;;;;;;3.25;1.40;;;;;;;12.17;100.00;99334.88;5025124;28;20041;-91
2022/05/29 05:05:05;;;;;;;3.55;1.08;;;;;;;12.23;100.00;99333.78;5045809;28;20064;-90
2022/05/29 05:07:50;;;;;;;3.50;0.90;;;;;;;11.78;100.00;99348.56;5008968;28;20415;-91
2022/05/29 05:10:35;;;;;;;3.80;0.95;;;;;;;11.98;100.00;99344.38;5039546;28;20099;-90
2022/05/29 05:13:19;;;;;;;3.50;1.25;;;;;;;12.08;100.00;99345.72;5038867;28;20029;-91
2022/05/29 05:16:05;;;;;;;2.97;1.13;;;;;;;12.66;100.00;99337.31;5051805;28;20318;-91
2022/05/29 05:18:50;;;;;;;3.70;1.30;;;;;;;12.62;100.00;99326.91;5051886;28;20068;-90
2022/05/29 05:21:34;;;;;;;2.38;1.17;;;;;;;13.25;100.00;99336.59;5038978;28;20048;-92
2022/05/29 05:24:19;;;;;;;3.38;1.02;;;;;;;12.89;100.00;99349.50;5052489;28;20467;-91
2022/05/29 05:27:08;;;;;;;2.88;1.30;;;;;;;13.53;100.00;99352.88;5044156;28;20086;-92
2022/05/29 05:29:54;;;;;;;4.55;1.13;;;;;;;13.56;100.00;99347.47;5025068;28;20041;-92
2022/05/29 05:32:38;;;;;;;4.45;1.33;;;;;;;13.49;100.00;99343.41;5026389;28;20099;-91
2022/05/29 05:35:22;;;;;;;3.13;0.88;;;;;;;13.98;100.00;99327.19;5024715;28;20506;-91
2022/05/29 05:38:07;;;;;;;4.75;1.10;;;;;;;14.10;100.00;99333.63;5021528;28;20149;-92
2022/05/29 05:40:52;;;;;;;4.72;1.45;;;;;;;13.74;100.00;99324.72;5043108;28;20049;-91
2022/05/29 05:43:36;;;;;;;2.58;1.10;;;;;;;14.16;100.00;99333.34;5052080;28;20053;-91
2022/05/29 05:46:21;;;;;;;2.53;0.80;;;;;;;13.92;100.00;99345.88;5051939;28;20044;-91
2022/05/29 05:49:06;;;;;;;3.22;1.17;;;;;;;13.17;100.00;99338.69;5034856;28;20135;-91
2022/05/29 05:51:51;;;;;;;3.13;1.13;;;;;;;14.16;100.00;99339.47;5024239;28;20044;-91
2022/05/29 05:54:35;;;;;;;4.05;0.98;;;;;;;13.57;100.00;99350.94;5051495;28;20047;-91
2022/05/29 05:57:20;;;;;;;4.03;1.17;;;;;;;14.56;100.00;99340.25;5037692;28;20041;-91
2022/05/29 06:00:12;;;;;;;5.50;0.93;;;;;;;14.62;100.00;99342.53;5021242;28;20468;-91
2022/05/29 06:02:57;;;;;;;5.18;1.05;;;;;;;14.24;100.00;99354.91;5050204;28;20162;-91
2022/05/29 06:05:41;;;;;;;3.78;1.27;;;;;;;14.75;100.00;99358.63;5037459;28;20836;-91
2022/05/29 06:08:27;;;;;;;5.28;1.45;;;;;;;15.70;100.00;99345.03;5036992;28;20033;-90
2022/05/29 06:11:11;;;;;;;3.28;1.48;;;;;;;15.54;100.00;99363.44;5050497;28;20075;-90
2022/05/29 06:13:56;;;;;;;4.95;1.52;;;;;;;15.93;100.00;99351.72;5045966;28;20094;-91
2022/05/29 06:16:40;;;;;;;3.53;1.58;;;;;;;14.99;100.00;99347.81;5050572;28;20037;-90
2022/05/29 06:19:25;;;;;;;3.60;0.90;;;;;;;15.29;100.00;99361.22;5036200;28;20041;-90
2022/05/29 06:22:09;;;;;;;4.75;1.13;;;;;;;14.63;100.00;99359.25;5040945;28;20045;-91
2022/05/29 06:24:53;;;;;;;3.47;0.80;;;;;;;15.38;100.00;99356.31;5023784;28;20037;-91
2022/05/29 06:27:40;;;;;;;3.03;0.70;;;;;;;15.74;100.00;99363.25;5034085;28;20053;-92
2022/05/29 06:30:25;;;;;;;7.93;1.30;;;;;;;15.20;100.00;99347.53;5035040;28;20040;-92
2022/05/29 06:33:11;;;;;;;3.63;1.42;;;;;;;14.56;100.00;99361.31;5022513;28;20112;-93
2022/05/29 06:36:07;;;;;;;2.10;0.77;;;;;;;16.08;100.00;99364.91;5028303;28;20040;-93
2022/05/29 06:38:54;;;;;;;4.70;0.70;;;;;;;16.87;100.00;99353.50;5021775;28;20044;-91
2022/05/29 06:41:40;;;;;;;3.20;0.65;;;;;;;15.77;100.00;99370.16;5034925;28;20059;-90
2022/05/29 06:44:24;;;;;;;3.15;0.80;;;;;;;15.55;100.00;99363.34;5037266;28;20365;-92
2022/05/29 06:47:09;;;;;;;4.80;0.90;;;;;;;16.78;100.00;99325.78;5051529;28;20037;-90
2022/05/29 06:49:54;;;;;;;3.40;0.82;;;;;;;16.92;100.00;99364.63;5038115;28;20435;-91
2022/05/29 06:52:40;;;;;;;3.38;1.10;;;;;;;16.69;100.00;99344.78;5051524;28;20477;-91
2022/05/29 06:55:25;;;;;;;2.63;0.60;;;;;;;16.16;100.00;99334.63;5044839;28;20403;-91
2022/05/29 06:58:10;;;;;;;3.35;0.85;;;;;;;17.06;98.07;99350.59;5006905;28;20049;-91
2022/05/29 07:07:01;;;;;;;3.45;1.08;;;;;;;16.44;89.45;99337.38;5035259;28;20060;-90
2022/05/29 07:09:47;;;;;;;3.15;0.75;;;;;;;16.41;88.93;99349.94;5024377;28;20419;-91
2022/05/29 07:12:32;;;;;;;3.22;0.90;;;;;;;17.24;87.25;99365.41;5052354;28;20033;-90
2022/05/29 07:15:18;;;;;;;4.72;1.38;;;;;;;16.89;88.15;99353.38;5036309;28;20044;-91
2022/05/29 07:18:04;;;;;;;5.93;1.30;;;;;;;16.69;84.70;99336.00;5035907;28;20040;-91
2022/05/29 07:20:48;;;;;;;3.40;1.00;;;;;;;16.32;86.14;99368.03;5052839;28;20040;-90
2022/05/29 07:23:35;;;;;;;2.55;0.70;;;;;;;17.56;88.18;99332.66;5052199;28;20537;-90
2022/05/29 07:26:21;;;;;;;3.58;0.88;;;;;;;18.06;78.22;99329.50;5052687;28;20029;-92
2022/05/29 07:29:06;;;;;;;3.38;0.73;;;;;;;18.53;77.94;99327.44;5034291;28;20068;-91
2022/05/29 07:31:52;;;;;;;4.15;0.75;;;;;;;18.61;81.76;99351.63;5049097;28;20033;-91
2022/05/29 07:34:37;;;;;;;2.88;0.40;;;;;;;18.23;82.50;99339.03;5053080;28;20144;-91
2022/05/29 07:37:23;;;;;;;3.63;0.50;;;;;;;17.97;77.06;99353.94;5025028;28;20048;-90
2022/05/29 07:40:08;;;;;;;1.77;0.40;;;;;;;17.77;79.84;99335.78;5024990;28;20079;-91
2022/05/29 07:45:57;;;;;;;3.88;0.80;;;;;;;17.92;78.85;99343.63;5045228;28;20131;-91
2022/05/29 07:48:42;;;;;;;3.97;0.68;;;;;;;18.28;78.11;99338.75;5038579;28;20105;-91
2022/05/29 07:51:27;;;;;;;6.10;1.38;;;;;;;17.24;83.31;99336.28;5040078;28;20037;-91
2022/05/29 07:54:11;;;;;;;3.53;0.80;;;;;;;16.45;82.13;99338.28;5028483;28;20045;-90
2022/05/29 07:56:58;;;;;;;3.70;1.60;;;;;;;18.84;80.35;99331.56;5039894;28;20045;-91
2022/05/29 07:59:43;;;;;;;3.60;2.97;;;;;;;19.07;75.35;99348.59;5038013;28;20049;-91
2022/05/29 08:02:34;;;;;;;4.20;1.38;;;;;;;19.61;71.85;99343.13;5042839;28;20476;-91
2022/05/29 08:05:21;;;;;;;2.13;0.75;;;;;;;18.90;75.41;99345.28;5056575;28;20041;-91
2022/05/29 08:08:09;;;;;;;4.68;0.93;;;;;;;19.66;71.97;99353.47;5026612;28;20051;-90
2022/05/29 08:10:53;;;;;;;3.55;0.98;;;;;;;18.43;74.55;99330.66;5042462;28;20096;-91
2022/05/29 08:13:41;;;;;;;3.90;0.90;;;;;;;17.09;75.28;99331.06;5056361;28;20045;-91
2022/05/29 08:16:25;;;;;;;2.85;0.70;;;;;;;17.63;76.93;99341.91;5038993;28;20048;-92
2022/05/29 08:19:09;;;;;;;3.63;0.93;;;;;;;16.61;78.71;99347.03;5044834;28;20060;-91
2022/05/29 08:21:54;;;;;;;5.18;2.13;;;;;;;18.21;71.34;99341.78;5041776;28;20681;-91
2022/05/29 08:30:53;;;;;;;3.83;0.90;;;;;;;16.18;78.10;99352.06;5051975;28;20040;-89
2022/05/29 08:33:40;;;;;;;2.90;0.73;;;;;;;16.75;75.29;99362.13;5037537;28;20494;-90
2022/05/29 08:36:26;;;;;;;3.45;0.80;;;;;;;16.02;78.24;99353.84;5025723;28;20068;-91
2022/05/29 08:39:11;;;;;;;5.30;2.05;;;;;;;16.44;76.86;99344.47;5052532;28;20045;-90
2022/05/29 08:41:57;;;;;;;6.72;3.05;;;;;;;17.03;73.71;99362.25;5051900;28;20585;-90
2022/05/29 08:44:46;;;;;;;5.28;2.00;;;;;;;16.41;78.17;99342.00;5038719;28;20033;-91
2022/05/29 08:47:32;;;;;;;2.80;0.60;;;;;;;15.65;77.97;99371.63;5033484;28;20041;-90
2022/05/29 08:50:23;;;;;;;4.72;0.77;;;;;;;14.78;83.68;99370.81;5030582;28;20045;-90
2022/05/29 08:53:26;;;;;;;3.08;0.90;;;;;;;15.72;81.56;99330.78;5024787;28;20079;-90
2022/05/29 08:56:29;;;;;;;2.15;0.90;;;;;;;15.42;77.29;99335.88;5052036;28;20056;-89
2022/05/29 08:59:43;;;;;;;2.75;0.50;;;;;;;15.83;76.91;99375.97;5031194;28;20124;-90
2022/05/29 09:02:46;;;;;;;1.70;0.50;;;;;;;16.91;75.39;99367.38;5023583;28;20033;-90
2022/05/29 09:05:43;;;;;;;3.03;0.65;;;;;;;16.85;76.90;99352.72;5052471;28;20578;-90
2022/05/29 09:08:35;;;;;;;2.83;0.75;;;;;;;16.16;74.25;99319.59;5035869;28;20040;-90
2022/05/29 09:11:44;;;;;;;12.23;6.78;;;;;;;16.78;76.15;99357.50;5052560;28;20399;-90
2022/05/29 09:14:35;;;;;;;11.38;7.00;;;;;;;16.11;73.85;99325.13;5037663;28;20044;-90
2022/05/29 09:17:23;;;;;;;4.72;2.80;;;;;;;16.32;75.76;99351.31;5040601;28;20037;-90
2022/05/29 09:20:11;;;;;;;5.45;3.50;;;;;;;16.25;73.25;99356.09;5055195;28;20037;-90
2022/05/29 09:22:58;;;;;;;5.93;2.55;;;;;;;15.91;73.64;99340.38;5034673;28;20033;-90
2022/05/29 09:25:46;;;;;;;22.02;12.90;;;;;;;15.80;74.81;99339.19;5040430;28;20064;-90
2022/05/29 09:28:37;;;;;;;13.95;10.10;;;;;;;16.40;74.50;99346.44;5039491;28;20514;-90
2022/05/29 09:31:26;;;;;;;5.15;2.65;;;;;;;18.33;70.50;99318.09;5026212;28;20044;-90
2022/05/29 09:34:11;;;;;;;3.90;1.33;;;;;;;19.56;65.85;99321.34;5044865;28;20052;-91
2022/05/29 09:37:11;;;;;;;3.67;1.10;;;;;;;19.03;61.56;99312.63;5039726;28;20380;-90
2022/05/29 09:39:59;;;;;;;3.75;0.70;;;;;;;16.70;66.49;99309.47;5039141;28;20051;-90
2022/05/29 09:42:44;;;;;;;2.05;0.63;;;;;;;16.87;63.96;99337.63;5054159;28;20120;-91
2022/05/29 09:45:39;;;;;;;4.00;0.60;;;;;;;16.64;61.78;99306.31;5039953;28;20033;-90
2022/05/29 09:51:37;;;;;;;2.22;1.33;;;;;;;18.29;64.81;99285.63;5054614;28;20096;-90
2022/05/29 09:54:29;;;;;;;2.22;0.82;;;;;;;18.24;61.59;99303.66;5047827;28;20452;-90
2022/05/29 09:57:24;;;;;;;6.25;1.30;;;;;;;17.09;63.56;99305.44;5040809;28;20127;-90
2022/05/29 10:00:23;;;;;;;2.70;0.77;;;;;;;17.28;61.32;99302.56;5035714;28;20044;-90
2022/05/29 10:03:38;;;;;;;3.13;0.68;;;;;;;16.29;62.04;99299.50;5039692;28;20448;-90
2022/05/29 10:06:42;;;;;;;2.72;0.70;;;;;;;16.98;64.22;99350.22;5039702;28;20426;-90
2022/05/29 10:09:27;;;;;;;5.47;3.58;;;;;;;16.66;65.76;99307.94;5032313;28;20069;-90
2022/05/29 10:12:18;;;;;;;5.90;3.47;;;;;;;16.39;62.28;99288.41;5053350;28;20064;-89
2022/05/29 10:15:06;;;;;;;4.55;2.42;;;;;;;16.70;61.97;99313.91;5050917;28;20041;-90
2022/05/29 10:18:01;;;;;;;1.67;1.30;;;;;;;16.72;61.42;99298.81;5053674;28;20068;-90
2022/05/29 10:20:46;;;;;;;1.25;0.40;;;;;;;16.58;61.19;99278.47;5045377;28;20044;-91
2022/05/29 10:23:34;;;;;;;2.67;0.70;;;;;;;17.00;59.79;99304.22;5040111;28;20041;-91
2022/05/29 10:26:22;;;;;;;2.45;0.60;;;;;;;19.14;58.58;99328.66;5034844;28;20088;-90
2022/05/29 10:29:18;;;;;;;1.75;0.57;;;;;;;19.97;48.74;99281.25;5048267;28;20036;-89
2022/05/29 10:32:10;;;;;;;2.17;0.43;;;;;;;18.95;51.12;99299.88;5049210;28;20040;-90
2022/05/29 10:35:26;;;;;;;3.38;0.70;;;;;;;17.61;55.12;99326.09;5053639;28;20094;-90
2022/05/29 10:38:19;;;;;;;6.82;0.70;;;;;;;16.29;58.13;99335.63;5053516;28;20041;-90
2022/05/29 10:41:11;;;;;;;5.57;0.68;;;;;;;16.51;54.96;99314.97;5049180;28;20486;-90
2022/05/29 10:43:56;;;;;;;4.53;0.65;;;;;;;16.65;55.07;99284.25;5026792;28;20057;-96
2022/05/29 10:47:17;;;;;;;2.17;0.65;;;;;;;17.11;55.72;99248.00;5033264;28;20053;-96
2022/05/29 10:50:14;;;;;;;4.28;0.75;;;;;;;17.12;56.58;99281.44;5021127;28;20087;-95
2022/05/29 10:53:24;;;;;;;5.43;0.88;;;;;;;17.20;58.27;99316.25;5014086;28;20052;-96
2022/05/29 10:56:39;;;;;;;5.00;1.00;;;;;;;17.42;57.15;99330.81;5018890;28;20049;-96
2022/05/29 11:00:07;;;;;;;4.85;1.15;;;;;;;16.89;60.11;99321.66;5022035;28;20049;-96
2022/05/29 11:03:21;;;;;;;2.58;0.60;;;;;;;16.30;59.02;99258.91;5052013;28;20045;-94
2022/05/29 11:06:41;;;;;;;4.80;0.88;;;;;;;17.32;59.25;99338.47;5028047;28;20045;-95
2022/05/29 11:09:36;;;;;;;3.38;0.90;;;;;;;16.00;64.60;99327.53;5049346;28;20041;-95
2022/05/29 11:12:47;;;;;;;4.40;1.20;;;;;;;14.89;64.10;99260.41;5040253;28;20105;-95
2022/05/29 11:15:43;;;;;;;4.68;1.17;;;;;;;15.39;64.30;99302.59;5046626;28;20044;-94
2022/05/29 11:19:02;;;;;;;4.80;1.13;;;;;;;16.15;63.58;99341.66;5034662;28;20040;-96
2022/05/29 11:22:41;;;;;;;4.47;1.23;;;;;;;16.02;62.36;99346.78;5002270;28;20053;-94
2022/05/29 11:26:22;;;;;;;4.15;0.57;;;;;;;15.59;59.16;99337.63;5047912;28;20035;-95
2022/05/29 11:29:25;;;;;;;3.55;0.88;;;;;;;15.74;61.07;99264.72;5059691;28;20037;-94
2022/05/29 11:32:33;;;;;;;2.58;0.75;;;;;;;16.23;59.23;99248.78;5023086;28;20106;-94
2022/05/29 11:35:51;;;;;;;3.70;1.00;;;;;;;16.00;59.77;99338.09;5071367;28;20060;-93
2022/05/29 11:39:01;;;;;;;3.40;0.70;;;;;;;16.25;59.69;99265.38;5050822;28;20064;-96
2022/05/29 11:42:27;;;;;;;3.83;1.67;;;;;;;16.96;55.51;99337.06;5042943;28;20056;-96
2022/05/29 11:52:13;;;;;;;5.50;2.95;;;;;;;16.16;58.26;99144.41;5038068;28;20045;-96
2022/05/29 11:55:01;;;;;;;2.60;1.05;;;;;;;17.08;57.76;99318.78;4961057;28;20409;-51
2022/05/29 11:57:49;;;;;;;4.63;1.52;;;;;;;17.58;59.26;99322.78;4960716;28;20106;-53
2022/05/29 12:00:45;;;;;;;4.57;1.75;;;;;;;18.17;55.24;99310.31;4961682;28;20113;-51
2022/05/29 12:03:52;;;;;;;6.10;2.25;;;;;;;17.69;57.92;99310.59;4960450;28;20039;-52
2022/05/29 12:06:47;;;;;;;2.95;1.15;;;;;;;18.41;56.56;99299.91;4961842;28;20069;-52
2022/05/29 12:09:51;;;;;;;4.45;1.05;;;;;;;16.81;55.12;99293.88;4962168;28;20761;-52
2022/05/29 12:12:42;;;;;;;6.78;1.00;;;;;;;17.62;59.11;99284.63;4963722;28;20035;-52
2022/05/29 12:15:30;;;;;;;2.83;0.98;;;;;;;17.24;58.50;99283.38;4960608;28;20035;-52
2022/05/29 12:18:19;;;;;;;7.18;3.50;;;;;;;17.03;56.04;99279.38;4964228;28;20051;-53
2022/05/29 12:21:04;;;;;;;7.03;5.38;;;;;;;17.62;56.32;99289.91;4963602;28;20153;-52
2022/05/29 12:23:52;;;;;;;9.43;6.30;;;;;;;18.74;56.89;99275.63;4960833;28;20046;-53
2022/05/29 12:26:43;;;;;;;3.20;2.05;;;;;;;18.45;55.56;99274.88;4963879;28;20619;-52
2022/05/29 12:29:34;;;;;;;6.88;2.75;;;;;;;18.44;49.23;99268.72;4964036;28;20098;-52
2022/05/29 12:32:22;;;;;;;4.07;1.88;;;;;;;18.63;52.35;99256.91;4959675;28;20061;-51
2022/05/29 12:35:39;;;;;;;5.38;2.13;;;;;;;18.31;52.61;99277.59;4962663;28;20058;-52
2022/05/29 12:38:29;;;;;;;2.47;0.77;;;;;;;19.22;51.17;99264.44;4962182;28;20072;-52
2022/05/29 12:41:27;;;;;;;4.07;1.23;;;;;;;19.36;51.61;99264.31;4962305;28;20051;-52
2022/05/29 12:45:02;;;;;;;4.00;0.60;;;;;;;20.01;48.76;99264.13;4961042;28;20058;-52
2022/05/29 12:48:03;;;;;;;3.03;0.68;;;;;;;19.31;49.78;99271.78;4959168;28;20055;-52
2022/05/29 12:51:16;;;;;;;1.67;0.63;;;;;;;18.90;48.71;99283.41;4960347;28;20050;-52
2022/05/29 12:54:10;;;;;;;;;;;;;;;18.96;48.64;99285.66;4961894;28;20410;-52
2022/05/29 12:57:20;;;;;;;2.92;0.43;;;;;;;19.20;52.45;99293.72;4961744;28;20032;-52
2022/05/29 13:00:18;;;;;;;4.15;0.65;;;;;;;19.06;49.58;99291.19;4963569;28;20050;-52
2022/05/29 13:03:31;;;;;;;1.23;0.32;;;;;;;18.35;47.10;99284.38;4960501;28;20666;-52
2022/05/29 13:06:24;;;;;;;4.57;0.80;;;;;;;17.48;50.83;99282.81;4961602;28;20054;-52
2022/05/29 13:09:32;;;;;;;3.63;1.00;;;;;;;17.29;49.21;99283.09;4961914;28;20146;-52
2022/05/29 13:12:27;;;;;;;3.28;0.45;;;;;;;17.51;51.49;99280.81;4964565;28;20051;-52
2022/05/29 13:15:23;;;;;;;2.78;0.50;;;;;;;17.97;53.93;99279.75;4962879;28;20066;-51
2022/05/29 13:21:20;;;;;;;2.88;0.68;;;;;;;17.58;51.77;99269.84;4963039;28;20051;-52
2022/05/29 13:24:16;;;;;;;4.22;0.43;;;;;;;17.96;49.60;99267.47;4963861;28;20659;-51
2022/05/29 13:27:12;;;;;;;3.35;0.52;;;;;;;17.40;53.04;99266.56;4960910;28;20039;-50
2022/05/29 13:29:59;;;;;;;3.20;1.02;;;;;;;18.11;54.14;99269.13;4963030;28;20038;-52
2022/05/29 13:32:44;;;;;;;4.05;1.15;;;;;;;18.25;53.65;99257.63;4962092;28;20058;-51
2022/05/29 13:35:28;;;;;;;10.30;4.45;;;;;;;17.61;56.32;99259.06;4961110;28;20039;-50
2022/05/29 13:38:44;;;;;;;13.73;6.43;;;;;;;18.05;51.95;99250.13;4961122;28;20050;-52
2022/05/29 13:41:50;;;;;;;4.55;1.70;;;;;;;18.65;49.53;99239.06;4960317;28;20058;-51
2022/05/29 13:44:42;;;;;;;3.88;2.10;;;;;;;18.33;52.74;99235.91;4965881;28;20046;-51
2022/05/29 13:47:29;;;;;;;1.73;0.60;;;;;;;17.97;51.81;99242.66;4961359;28;20047;-52
2022/05/29 13:50:14;;;;;;;2.20;0.35;;;;;;;18.28;52.67;99246.00;4962291;28;20311;-51
2022/05/29 13:53:04;;;;;;;3.35;0.85;;;;;;;18.13;51.54;99238.06;4961690;28;20494;-51
2022/05/29 13:56:11;;;;;;;1.70;0.38;;;;;;;17.25;53.29;99239.22;4962426;28;20078;-51
2022/05/29 14:05:47;;;;;;;2.85;0.57;;;;;;;17.51;52.99;99259.63;4943549;28;20051;-52
2022/05/29 14:08:46;;;;;;;2.00;0.40;;;;;;;17.94;51.04;99253.47;4960846;28;20047;-51
2022/05/29 14:11:56;;;;;;;8.02;3.38;;;;;;;17.58;51.08;99257.47;4961768;28;20064;-52
2022/05/29 14:14:44;;;;;;;4.03;1.27;;;;;;;18.19;47.38;99245.63;4961171;28;20477;-51